Pink Ribbon: National Breast Cancer Awareness Month map of KJAQ home
KJAQ - Airport
Location
City:  Jackson, California, United States
Name:Westover Field Amador County Airport
ICAO:KJAQ
FAA LID:JAQ

Details
Type:Airport (Airfield)
Use:Public/Civil
Latitude:3822'36"N (38.376803)
Longitude:12047'38"W (-120.793905)
Datum:WGS 1984
Elevation:1694 ft (516 m)
Variation:13.48E (WMM2015 magnetic declination)
-0.10 annual change
Runways:1
Longest:3401 × 60 ft (1037 × 18.5 m), paved

Time
Time Zone:UTC-8 (DST-7)
Local Time:

Weather
METAR:KJAQ 012155Z AUTO 34008KT 300V010 10SM CLR 21/01 A3006 RMK AO1 T02130014

Related Locations
Nearby:
Farthest:FTU: 11269 mi / 18136 km
Tolagnaro [Maurillac Airport (Fort Dauphin Airport)], MG

Find:

   beyond  
but within

Other Information
Maps:
NOTAMs:
Links:
Sources:

  
flag of United States
flag of California
  

Sectional Chart

Flight Planning
at skyvector.com

Satellite Image

Google Maps Satellite view

 

Copyright © 2004-2016 Karl L. Swartz. All rights reserved.
The Great Circle Mapper name and logo are trademarks of the Great Circle Mapper.
All other trademarks mentioned herein belong to their respective owners.
Please see credits for attibutions and further copyright information.

  Follow gcmap on Facebook Follow gcmap on Twitter Follow gcmap on Google+ GCmap on LinkedIn

hCard Microformat

Geo Microformat